• Join FlightAware (Why Join?)
  • Login
  • US Flag 
11:55PM EDT


 

Airport Tracker/Info


-or-


 

Live Flight TrackerFlight Track Log ✈ EJA941 ✈ 09-Oct-2013 ✈ KHBG - KHOU

Flight Track Log - Related Links

Times and Time Zones

All times are in EDT time to prevent confusion due to time zone crossing. See the EJA941 flight status page for this flight to view local times or setup timezone preferences in your user account.

Time Position Orientation Groundspeed Altitude Reporting Facility
EDT Latitude Longitude Course Direction KTS MPH feet Rate Location/Type
05:32PM 31.2361 -89.3681 240° Southwest 216 249 3,300  Level Houston Center
05:33PM 31.2103 -89.4425 248° West 240 276 6,200 3,240 Climbing Houston Center
05:34PM 31.1728 -89.5422 246° West 272 313 10,100 2,460 Climbing Houston Center
05:35PM 31.1233 -89.6256 235° Southwest 311 358 11,300 1,500 Climbing Houston Center
05:36PM 31.0653 -89.7172 234° Southwest 344 396 13,200 1,740 Climbing Houston Center
05:37PM 31.1180 -89.8548 246° West  Level Estimated
05:37PM 31.0039 -89.8103 232° Southwest 358 412 15,000  Level Houston Center
05:38PM 31.0883 -89.9749 240° Southwest  Level Estimated
05:38PM 30.9425 -89.9061 233° Southwest 368 423 16,600  Level Houston Center
05:40PM 30.8656 -90.0247 233° Southwest 382 440 18,400 1,440 Climbing Houston Center
05:41PM 30.8014 -90.1258 234° Southwest 390 449 19,700 1,260 Climbing Houston Center
05:42PM 30.7331 -90.2306 233° Southwest 405 466 21,100 1,260 Climbing Houston Center
05:43PM 30.6642 -90.3367 233° Southwest 415 478 22,400 1,260 Climbing Houston Center
05:44PM 30.5936 -90.4456 233° Southwest 422 486 23,800 1,560 Climbing Houston Center
05:45PM 30.5061 -90.5792 233° Southwest 434 499 25,700 1,680 Climbing Houston Center
05:46PM 30.4322 -90.6917 233° Southwest 439 505 27,300 1,440 Climbing Houston Center
05:47PM 30.3578 -90.8047 233° Southwest 442 509 28,700 1,200 Climbing Houston Center
05:48PM 30.2817 -90.9203 233° Southwest 451 519 29,800 600 Climbing Houston Center
05:49PM 30.2108 -91.0492 238° Southwest 473 544 30,000 60 Climbing Houston Center
05:50PM 30.1494 -91.2231 248° West 490 564 30,000  Level Houston Center
05:51PM 30.0978 -91.3717 248° West 498 573 30,000  Level Houston Center
05:52PM 30.0453 -91.5206 248° West 502 578 30,000  Level Houston Center
05:53PM 29.9922 -91.6692 248° West 502 578 30,000  Level Houston Center
05:54PM 29.9414 -91.8125 248° West 500 575 30,000  Level Houston Center
05:55PM 29.8783 -91.9917 248° West 503 579 30,000  Level Houston Center
05:56PM 29.8253 -92.1408 248° West 501 577 30,000  Level Houston Center
05:57PM 29.7869 -92.2944 254° West 500 575 30,000  Level Houston Center
05:58PM 29.7519 -92.4489 255° West 499 574 30,000  Level Houston Center
05:59PM 29.7164 -92.6033 255° West 499 574 30,000  Level Houston Center
06:00PM 29.6817 -92.7567 255° West 495 570 30,000  Level Houston Center
06:01PM 29.6381 -92.9417 255° West 498 573 30,000  Level Houston Center
06:02PM 29.6025 -93.0947 255° West 496 571 30,000  Level Houston Center
06:03PM 29.5664 -93.2486 255° West 497 572 30,000  Level Houston Center
06:04PM 29.5294 -93.4028 255° West 499 574 30,000 -1,020 Level Houston Center
06:05PM 29.4947 -93.5517 255° West 485 558 27,900 -2,280 Descending Houston Center
06:06PM 29.4592 -93.6992 255° West 479 551 25,300 -2,460 Descending Houston Center
06:07PM 29.4250 -93.8411 255° West 464 534 22,900 -2,520 Descending Houston Center
06:08PM 29.3853 -94.0042 254° West 446 513 20,100 -2,640 Descending Houston Center
06:09PM 29.3756 -94.0417 253° West 436 502 19,400 -2,340 Descending Houston Center
06:10PM 29.3525 -94.1417 255° West 437 503 17,700 -2,400 Descending Houston Center
06:10PM 29.3342 -94.2153 254° West 432 497 16,500 -2,280 Descending Houston Center
06:11PM 29.3228 -94.2728 257° West 428 493 15,400 -2,160 Descending Houston Center
06:11PM 29.3250 -94.3317 272° West 422 486 14,500 -2,100 Descending Houston Center
06:12PM 29.3425 -94.4022 286° West 411 473 13,200 -2,700 Descending Houston Center
06:12PM 29.3542 -94.4572 284° West 403 464 11,800 -2,820 Descending Houston Center
06:13PM 29.3719 -94.5261 287° West 405 466 10,300 -1,800 Descending Houston Center
06:13PM 29.3856 -94.5853 285° West 373 429 10,000 -300 Descending Houston Center
06:14PM 29.3994 -94.6383 287° West 373 429 10,000  Level Houston Center
06:14PM 29.4108 -94.6925 284° West 350 403 10,000  Level Houston Center
06:15PM 29.4300 -94.7656 287° West 349 402 10,000  Level Houston Center
06:15PM 29.4350 -94.7903 283° West 347 399 10,000  Level Houston Center
06:16PM 29.4567 -94.8681 288° West 339 390 10,000  Level Houston Center
06:16PM 29.4653 -94.8872 297° West 316 364 10,000 -120 Level Houston Center
06:17PM 29.4958 -94.9492 300° West 295 339 9,900 -540 Descending Houston Center
06:17PM 29.5044 -94.9664 300° West 271 312 9,500 -1,680 Descending Houston Center
06:18PM 29.5331 -95.0244 300° West 277 319 8,200 -1,920 Descending Houston Center
06:18PM 29.5461 -95.0525 298° West 269 310 7,400 -1,980 Descending Houston Center
06:19PM 29.5703 -95.1017 299° West 275 316 6,200 -1,500 Descending Houston Center
06:19PM 29.5803 -95.1253 296° West 277 319 6,000 -240 Descending Houston Center
06:20PM 29.6050 -95.1864 295° West 277 319 6,000  Level Houston Center
06:20PM 29.6050 -95.2111 270° West 263 303 6,000  Level Houston Center
06:21PM 29.6122 -95.2703 278° West 263 303 6,000 -900 Level Houston Center
06:21PM 29.6153 -95.2986 277° West 251 289 5,100 -2,820 Descending Houston Center
06:22PM 29.6231 -95.3511 280° West 256 295 3,100 -2,880 Descending Houston Center
06:22PM 29.6369 -95.3756 303° West 261 300 2,200 -1,080 Descending Houston Center
06:23PM 29.6700 -95.3967 331° Northwest 243 280 2,000 -240 Descending Houston Center
06:23PM 29.6817 -95.3797 52° Northeast 170 196 2,000 -600 Level Houston Center
06:24PM 29.6853 -95.3367 84° East 188 216 1,400 -720 Descending Houston Center
06:24PM 29.6831 -95.3289 108° East 145 167 1,300 -780 Descending Houston Center
06:25PM 29.6661 -95.3044 129° Southeast 151 174 600 -840 Descending Houston Center
06:25PM 29.6594 -95.2983 141° Southeast 125 144 500 -420 Descending Houston Center
06:26PM 29.6444 -95.2781 130° Southeast 138 159 200 -360 Descending Houston Center